createdAt,value
2022-12-23T00:01:04.826Z,8.59
2022-12-23T00:03:32.973Z,8.61
2022-12-23T00:06:01.032Z,8.62
2022-12-23T00:08:28.156Z,8.62
2022-12-23T00:10:57.511Z,8.61
2022-12-23T00:13:42.812Z,8.58
2022-12-23T00:16:14.187Z,8.57
2022-12-23T00:18:43.625Z,8.54
2022-12-23T00:21:14.552Z,8.55
2022-12-23T00:23:46.161Z,8.54
2022-12-23T00:26:21.626Z,8.54
2022-12-23T00:28:49.246Z,8.50
2022-12-23T00:31:21.123Z,8.45
2022-12-23T00:33:51.442Z,8.47
2022-12-23T00:36:30.214Z,8.47
2022-12-23T00:39:18.009Z,8.47
2022-12-23T00:42:04.630Z,8.45
2022-12-23T00:44:31.686Z,8.44
2022-12-23T00:46:58.655Z,8.44
2022-12-23T00:49:43.776Z,8.46
2022-12-23T00:52:15.568Z,8.45
2022-12-23T00:54:42.897Z,8.47
2022-12-23T00:57:10.240Z,8.47
2022-12-23T00:59:37.605Z,8.46
2022-12-23T01:02:23.509Z,8.49
2022-12-23T01:05:08.933Z,8.50
2022-12-23T01:07:35.907Z,8.49
2022-12-23T01:10:04.147Z,8.48
2022-12-23T01:12:31.487Z,8.48
2022-12-23T01:14:58.794Z,8.49
2022-12-23T01:17:25.793Z,8.48
2022-12-23T01:19:52.699Z,8.49
2022-12-23T01:22:19.595Z,8.50
2022-12-23T01:24:46.529Z,8.48
2022-12-23T01:27:13.765Z,8.48
2022-12-23T01:29:40.830Z,8.45
2022-12-23T01:32:07.791Z,8.41
2022-12-23T01:34:37.462Z,8.38
2022-12-23T01:37:05.628Z,8.40
2022-12-23T01:39:32.960Z,8.41
2022-12-23T01:42:18.410Z,8.43
2022-12-23T01:44:55.903Z,8.45
2022-12-23T01:47:53.394Z,8.47
2022-12-23T01:50:29.920Z,8.50
2022-12-23T01:53:08.310Z,8.46
2022-12-23T01:56:24.064Z,8.39
2022-12-23T01:58:54.185Z,8.35
2022-12-23T02:01:40.580Z,8.36
2022-12-23T02:04:12.848Z,8.39
2022-12-23T02:07:00.983Z,8.42
2022-12-23T02:09:38.147Z,8.43
2022-12-23T02:12:26.188Z,8.40
2022-12-23T02:15:31.704Z,8.37
2022-12-23T02:18:15.882Z,8.38
2022-12-23T02:21:01.253Z,8.36
2022-12-23T02:24:05.584Z,8.38
2022-12-23T02:26:50.062Z,8.35
2022-12-23T02:29:56.186Z,8.39
2022-12-23T02:33:02.095Z,8.37
2022-12-23T02:36:04.112Z,8.37
2022-12-23T02:38:58.896Z,8.39
2022-12-23T02:41:45.415Z,8.40
2022-12-23T02:44:33.863Z,8.41
2022-12-23T02:47:09.704Z,8.41
2022-12-23T02:49:42.207Z,8.37
2022-12-23T02:52:14.647Z,8.36
2022-12-23T02:54:51.189Z,8.36
2022-12-23T02:57:34.756Z,8.36
2022-12-23T03:00:03.869Z,8.35
2022-12-23T03:02:34.637Z,8.30
2022-12-23T03:05:01.983Z,8.32
2022-12-23T03:07:39.128Z,8.28
2022-12-23T03:10:12.014Z,8.29
2022-12-23T03:13:01.014Z,8.33
2022-12-23T03:15:58.276Z,8.36
2022-12-23T03:18:43.785Z,8.34
2022-12-23T03:21:23.156Z,8.31
2022-12-23T03:23:59.004Z,8.34
2022-12-23T03:26:39.433Z,8.36
2022-12-23T03:29:19.070Z,8.38
2022-12-23T03:31:47.760Z,8.40
2022-12-23T03:34:20.161Z,8.42
2022-12-23T03:36:56.260Z,8.45
2022-12-23T03:39:31.281Z,8.44
2022-12-23T03:42:07.143Z,8.42
2022-12-23T03:44:39.400Z,8.38
2022-12-23T03:47:17.578Z,8.37
2022-12-23T03:49:53.112Z,8.36
2022-12-23T03:52:28.506Z,8.36
2022-12-23T03:54:59.613Z,8.38
2022-12-23T03:57:36.869Z,8.39
2022-12-23T04:00:06.659Z,8.40
2022-12-23T04:03:01.459Z,8.37
2022-12-23T04:05:36.217Z,8.37
2022-12-23T04:08:09.084Z,8.35
2022-12-23T04:10:36.220Z,8.37
2022-12-23T04:13:03.448Z,8.35
2022-12-23T04:15:30.855Z,8.36
2022-12-23T04:17:58.463Z,8.35
2022-12-23T04:20:25.896Z,8.33
2022-12-23T04:22:52.853Z,8.33
2022-12-23T04:25:20.451Z,8.35
2022-12-23T04:27:47.588Z,8.36
2022-12-23T04:30:15.009Z,8.34
2022-12-23T04:32:43.292Z,8.35
2022-12-23T04:35:11.730Z,8.37
2022-12-23T04:37:39.183Z,8.35
2022-12-23T04:40:07.189Z,8.36
2022-12-23T04:42:34.464Z,8.33
2022-12-23T04:45:01.802Z,8.34
2022-12-23T04:47:28.786Z,8.32
2022-12-23T04:49:55.806Z,8.32
2022-12-23T04:52:22.930Z,8.31
2022-12-23T04:54:49.834Z,8.32
2022-12-23T04:57:16.739Z,8.30
2022-12-23T04:59:43.714Z,8.29
2022-12-23T05:02:11.176Z,8.30
2022-12-23T05:04:38.428Z,8.30
2022-12-23T05:07:05.748Z,8.31
2022-12-23T05:09:32.687Z,8.32
2022-12-23T05:11:59.712Z,8.33
2022-12-23T05:14:26.599Z,8.32
2022-12-23T05:16:53.491Z,8.33
2022-12-23T05:19:20.375Z,8.29
2022-12-23T05:21:47.306Z,8.30
2022-12-23T05:24:14.257Z,8.30
2022-12-23T05:26:43.823Z,8.29
2022-12-23T05:29:15.809Z,8.23
2022-12-23T05:31:42.852Z,8.22
2022-12-23T05:34:09.882Z,8.21
2022-12-23T05:36:36.867Z,8.19
2022-12-23T05:39:03.840Z,8.17
2022-12-23T05:41:30.778Z,8.15
2022-12-23T05:43:57.845Z,8.15
2022-12-23T05:46:27.144Z,8.12
2022-12-23T05:48:54.527Z,8.11
2022-12-23T05:51:21.714Z,8.09
2022-12-23T05:53:48.671Z,8.06
2022-12-23T05:56:15.561Z,8.07
2022-12-23T05:58:42.797Z,8.05
2022-12-23T06:01:10.024Z,8.07
2022-12-23T06:03:37.146Z,8.07
2022-12-23T06:06:04.755Z,8.09
2022-12-23T06:08:31.662Z,8.10
2022-12-23T06:10:59.955Z,8.07
2022-12-23T06:13:27.033Z,8.04
2022-12-23T06:15:54.142Z,8.03
2022-12-23T06:18:21.207Z,8.02
2022-12-23T06:20:48.522Z,8.01
2022-12-23T06:23:15.495Z,8.00
2022-12-23T06:25:42.464Z,7.98
2022-12-23T06:28:09.431Z,7.97
2022-12-23T06:30:36.365Z,7.95
2022-12-23T06:33:03.451Z,7.96
2022-12-23T06:35:30.459Z,7.96
2022-12-23T06:37:57.433Z,7.97
2022-12-23T06:40:24.374Z,7.98
2022-12-23T06:42:51.401Z,7.99
2022-12-23T06:45:18.303Z,7.99
2022-12-23T06:47:45.343Z,7.99
2022-12-23T06:50:12.304Z,7.99
2022-12-23T06:52:39.258Z,7.99
2022-12-23T06:55:06.760Z,7.95
2022-12-23T06:57:33.868Z,7.93
2022-12-23T07:00:00.945Z,7.93
2022-12-23T07:02:28.259Z,7.94
2022-12-23T07:04:55.221Z,7.95
2022-12-23T07:07:22.172Z,8.00
2022-12-23T07:09:49.198Z,7.99
2022-12-23T07:12:16.471Z,7.97
2022-12-23T07:14:43.537Z,7.96
2022-12-23T07:17:10.552Z,8.00
2022-12-23T07:19:37.629Z,8.02
2022-12-23T07:22:04.781Z,8.05
2022-12-23T07:24:31.734Z,8.07
2022-12-23T07:26:59.017Z,8.09
2022-12-23T07:29:26.011Z,8.13
2022-12-23T07:31:53.504Z,8.16
2022-12-23T07:34:20.623Z,8.19
2022-12-23T07:36:47.829Z,8.21
2022-12-23T07:39:14.893Z,8.22
2022-12-23T07:41:42.043Z,8.25
2022-12-23T07:44:09.096Z,8.25
2022-12-23T07:46:36.373Z,8.25
2022-12-23T07:49:03.586Z,8.28
2022-12-23T07:51:30.853Z,8.29
2022-12-23T07:53:58.448Z,8.30
2022-12-23T07:56:26.031Z,8.34
2022-12-23T07:58:54.271Z,8.33
2022-12-23T08:01:22.067Z,8.36
2022-12-23T08:03:49.529Z,8.36
2022-12-23T08:06:16.891Z,8.35
2022-12-23T08:08:46.216Z,8.37
2022-12-23T08:11:15.169Z,8.39
2022-12-23T08:13:44.780Z,8.41
2022-12-23T08:16:13.036Z,8.45
2022-12-23T08:18:41.631Z,8.46
2022-12-23T08:21:14.937Z,8.50
2022-12-23T08:23:43.640Z,8.52
2022-12-23T08:26:21.252Z,8.56
2022-12-23T08:28:53.538Z,8.57
2022-12-23T08:31:27.176Z,8.59
2022-12-23T08:33:57.201Z,8.59
2022-12-23T08:36:31.368Z,8.62
2022-12-23T08:39:00.974Z,8.59
2022-12-23T08:41:32.772Z,8.63
2022-12-23T08:44:00.178Z,8.66
2022-12-23T08:46:28.166Z,8.66
2022-12-23T08:48:55.655Z,8.70
2022-12-23T08:51:24.816Z,8.71
2022-12-23T08:54:00.441Z,8.72
2022-12-23T08:56:33.345Z,8.72
2022-12-23T08:59:01.285Z,8.73
2022-12-23T09:01:32.739Z,8.75
2022-12-23T09:04:04.823Z,8.75
2022-12-23T09:06:40.734Z,8.76
2022-12-23T09:09:11.094Z,8.78
2022-12-23T09:11:38.960Z,8.77
2022-12-23T09:14:07.249Z,8.80
2022-12-23T09:16:34.583Z,8.83
2022-12-23T09:19:02.078Z,8.82
2022-12-23T09:21:29.430Z,8.85
2022-12-23T09:23:57.364Z,8.85
2022-12-23T09:26:28.193Z,8.89
2022-12-23T09:28:56.333Z,8.87
2022-12-23T09:31:26.694Z,8.89
2022-12-23T09:33:56.782Z,8.93
2022-12-23T09:36:24.140Z,8.96
2022-12-23T09:38:57.248Z,8.97
2022-12-23T09:42:03.561Z,9.01
2022-12-23T09:44:48.480Z,9.03
2022-12-23T09:47:23.929Z,9.06
2022-12-23T09:50:05.081Z,9.09
2022-12-23T09:53:03.211Z,9.11
2022-12-23T09:56:02.797Z,9.17
2022-12-23T09:59:20.345Z,9.17
2022-12-23T10:02:06.303Z,9.17
2022-12-23T10:04:36.965Z,9.19
2022-12-23T10:07:03.955Z,9.22
2022-12-23T10:09:37.869Z,9.24
2022-12-23T10:12:27.198Z,9.25
2022-12-23T10:14:58.801Z,9.26
2022-12-23T10:17:36.220Z,9.25
2022-12-23T10:20:06.506Z,9.27
2022-12-23T10:22:44.737Z,9.28
2022-12-23T10:25:35.603Z,9.27
2022-12-23T10:28:02.933Z,9.23
2022-12-23T10:30:57.407Z,9.26
2022-12-23T10:33:49.090Z,9.28
2022-12-23T10:36:58.536Z,9.29
2022-12-23T10:39:51.686Z,9.29
2022-12-23T10:42:34.124Z,9.30
2022-12-23T10:45:20.767Z,9.33
2022-12-23T10:48:06.101Z,9.32
2022-12-23T10:50:38.851Z,9.32
2022-12-23T10:53:11.649Z,9.36
2022-12-23T10:55:39.912Z,9.40
2022-12-23T10:58:18.711Z,9.41
2022-12-23T11:00:55.598Z,9.46
2022-12-23T11:03:38.725Z,9.44
2022-12-23T11:06:08.939Z,9.45
2022-12-23T11:08:38.648Z,9.49
2022-12-23T11:11:07.427Z,9.50
2022-12-23T11:13:41.447Z,9.56
2022-12-23T11:16:24.514Z,9.59
2022-12-23T11:18:55.757Z,9.62
2022-12-23T11:21:22.813Z,9.64
2022-12-23T11:24:10.094Z,9.67
2022-12-23T11:26:37.276Z,9.67
2022-12-23T11:29:19.656Z,9.70
2022-12-23T11:31:46.850Z,9.72
2022-12-23T11:34:17.287Z,9.76
2022-12-23T11:36:55.108Z,9.78
2022-12-23T11:39:34.039Z,9.81
2022-12-23T11:42:13.057Z,9.85
2022-12-23T11:44:52.411Z,9.85
2022-12-23T11:47:24.136Z,9.91
2022-12-23T11:49:57.528Z,9.95
2022-12-23T11:52:29.021Z,9.99
2022-12-23T11:55:01.964Z,10.04
2022-12-23T11:57:49.383Z,10.07
2022-12-23T12:00:34.717Z,10.11
2022-12-23T12:03:03.742Z,10.16
2022-12-23T12:05:52.103Z,10.24
2022-12-23T12:08:26.248Z,10.33
2022-12-23T12:11:02.411Z,10.40
2022-12-23T12:13:38.509Z,10.48
2022-12-23T12:16:30.676Z,10.55
2022-12-23T12:19:12.305Z,10.58
2022-12-23T12:21:39.864Z,10.64
2022-12-23T12:24:29.023Z,10.64
2022-12-23T12:27:03.651Z,10.65
2022-12-23T12:29:44.125Z,10.66
2022-12-23T12:32:33.697Z,10.69
2022-12-23T12:35:07.156Z,10.69
2022-12-23T12:37:53.135Z,10.68
2022-12-23T12:40:42.639Z,10.65
2022-12-23T12:43:35.265Z,10.64
2022-12-23T12:46:31.663Z,10.63
2022-12-23T12:49:47.760Z,10.62
2022-12-23T12:52:25.988Z,10.60
2022-12-23T12:55:21.598Z,10.61
2022-12-23T12:57:48.801Z,10.60
2022-12-23T13:00:24.731Z,10.61
2022-12-23T13:03:02.048Z,10.62
2022-12-23T13:09:02.854Z,10.61
2022-12-23T13:11:48.921Z,10.61
2022-12-23T13:18:15.239Z,10.58
2022-12-23T13:23:49.543Z,10.57
2022-12-23T13:26:31.381Z,10.57
2022-12-23T13:29:58.028Z,10.58
2022-12-23T13:32:49.713Z,10.57
2022-12-23T13:35:22.720Z,10.57
2022-12-23T13:38:23.253Z,10.60
2022-12-23T13:41:22.940Z,10.57
2022-12-23T13:43:57.897Z,10.58
2022-12-23T13:46:58.725Z,10.59
2022-12-23T13:49:45.715Z,10.59
2022-12-23T13:52:28.737Z,10.59
2022-12-23T13:55:40.886Z,10.59
2022-12-23T13:58:18.345Z,10.61
2022-12-23T14:00:46.434Z,10.60
2022-12-23T14:03:20.664Z,10.61
2022-12-23T14:05:52.870Z,10.59
2022-12-23T14:08:25.026Z,10.59
2022-12-23T14:11:33.118Z,10.58
2022-12-23T14:14:06.286Z,10.58
2022-12-23T14:17:10.069Z,10.57
2022-12-23T14:20:31.513Z,10.55
2022-12-23T14:26:38.086Z,10.53
2022-12-23T14:29:13.844Z,10.53
2022-12-23T14:31:45.278Z,10.53
2022-12-23T14:34:18.272Z,10.53
2022-12-23T14:37:24.288Z,10.50
2022-12-23T14:39:52.888Z,10.50
2022-12-23T14:42:43.414Z,10.50
2022-12-23T14:45:37.144Z,10.50
2022-12-23T14:48:37.086Z,10.50
2022-12-23T14:51:10.334Z,10.50
2022-12-23T14:56:39.518Z,10.51
2022-12-23T14:59:56.835Z,10.51
2022-12-23T15:02:37.418Z,10.51
2022-12-23T15:05:05.472Z,10.50
2022-12-23T15:07:36.473Z,10.49
2022-12-23T15:10:23.950Z,10.49
2022-12-23T15:12:58.293Z,10.49
2022-12-23T15:15:29.072Z,10.49
2022-12-23T15:18:03.497Z,10.49
2022-12-23T15:20:31.208Z,10.49
2022-12-23T15:23:11.885Z,10.47
2022-12-23T15:25:44.887Z,10.46
2022-12-23T15:28:30.570Z,10.46
2022-12-23T15:30:57.930Z,10.44
2022-12-23T15:36:35.427Z,10.42
2022-12-23T15:39:10.356Z,10.42
2022-12-23T15:41:45.890Z,10.41
2022-12-23T15:44:19.978Z,10.42
2022-12-23T15:46:47.042Z,10.39
2022-12-23T15:49:21.995Z,10.40
2022-12-23T15:52:16.524Z,10.40
2022-12-23T15:55:24.512Z,10.40
2022-12-23T15:57:52.733Z,10.38
2022-12-23T16:00:25.522Z,10.39
2022-12-23T16:03:01.230Z,10.38
2022-12-23T16:05:36.134Z,10.39
2022-12-23T16:08:23.020Z,10.38
2022-12-23T16:11:17.313Z,10.38
2022-12-23T16:14:01.464Z,10.37
2022-12-23T16:16:42.991Z,10.36
2022-12-23T16:19:53.482Z,10.36
2022-12-23T16:22:20.420Z,10.35
2022-12-23T16:24:57.901Z,10.34
2022-12-23T16:27:46.640Z,10.34
2022-12-23T16:30:17.715Z,10.36
2022-12-23T16:32:51.067Z,10.35
2022-12-23T16:35:32.115Z,10.34
2022-12-23T16:38:19.936Z,10.33
2022-12-23T16:40:55.756Z,10.32
2022-12-23T16:43:25.369Z,10.32
2022-12-23T16:45:56.203Z,10.32
2022-12-23T16:48:29.521Z,10.31
2022-12-23T16:50:58.063Z,10.30
2022-12-23T16:53:24.995Z,10.29
2022-12-23T16:55:58.357Z,10.29
2022-12-23T16:58:27.646Z,10.28
2022-12-23T17:00:55.935Z,10.28
2022-12-23T17:03:23.602Z,10.28
2022-12-23T17:05:50.682Z,10.28
2022-12-23T17:08:17.782Z,10.27
2022-12-23T17:10:45.388Z,10.28
2022-12-23T17:13:16.820Z,10.28
2022-12-23T17:15:44.677Z,10.28
2022-12-23T17:18:21.036Z,10.25
2022-12-23T17:20:49.494Z,10.26
2022-12-23T17:23:27.489Z,10.27
2022-12-23T17:25:54.844Z,10.27
2022-12-23T17:28:22.573Z,10.27
2022-12-23T17:30:54.785Z,10.27
2022-12-23T17:33:28.382Z,10.27
2022-12-23T17:35:55.961Z,10.28
2022-12-23T17:38:23.649Z,10.26
2022-12-23T17:40:51.315Z,10.27
2022-12-23T17:43:19.084Z,10.28
2022-12-23T17:45:47.129Z,10.28
2022-12-23T17:48:20.639Z,10.29
2022-12-23T17:50:49.368Z,10.29
2022-12-23T17:53:18.383Z,10.29
2022-12-23T17:55:45.634Z,10.28
2022-12-23T17:58:14.550Z,10.27
2022-12-23T18:00:42.227Z,10.26
2022-12-23T18:03:23.312Z,10.26
2022-12-23T18:05:55.649Z,10.24
2022-12-23T18:08:28.241Z,10.21
2022-12-23T18:10:55.729Z,10.23
2022-12-23T18:13:22.815Z,10.24
2022-12-23T18:15:50.275Z,10.24
2022-12-23T18:18:28.565Z,10.24
2022-12-23T18:21:00.492Z,10.22
2022-12-23T18:23:31.132Z,10.24
2022-12-23T18:25:59.269Z,10.24
2022-12-23T18:28:27.420Z,10.23
2022-12-23T18:30:58.083Z,10.24
2022-12-23T18:33:28.775Z,10.24
2022-12-23T18:35:56.276Z,10.23
2022-12-23T18:38:23.277Z,10.24
2022-12-23T18:40:54.678Z,10.23
2022-12-23T18:43:24.951Z,10.24
2022-12-23T18:45:53.773Z,10.24
2022-12-23T18:48:21.505Z,10.24
2022-12-23T18:50:48.922Z,10.24
2022-12-23T18:53:24.565Z,10.25
2022-12-23T18:55:53.858Z,10.24
2022-12-23T18:58:21.705Z,10.23
2022-12-23T19:00:50.965Z,10.23
2022-12-23T19:03:23.380Z,10.24
2022-12-23T19:05:53.327Z,10.23
2022-12-23T19:08:26.785Z,10.22
2022-12-23T19:10:56.007Z,10.22
2022-12-23T19:13:23.485Z,10.21
2022-12-23T19:15:51.016Z,10.22
2022-12-23T19:18:21.094Z,10.21
2022-12-23T19:20:51.887Z,10.23
2022-12-23T19:23:19.037Z,10.20
2022-12-23T19:25:54.361Z,10.21
2022-12-23T19:28:22.860Z,10.21
2022-12-23T19:30:50.575Z,10.22
2022-12-23T19:33:17.736Z,10.23
2022-12-23T19:35:44.869Z,10.24
2022-12-23T19:38:12.459Z,10.22
2022-12-23T19:40:40.640Z,10.19
2022-12-23T19:43:08.122Z,10.18
2022-12-23T19:45:35.105Z,10.16
2022-12-23T19:48:02.119Z,10.13
2022-12-23T19:50:29.196Z,10.12
2022-12-23T19:52:56.677Z,10.12
2022-12-23T19:55:24.508Z,10.12
2022-12-23T19:57:52.272Z,10.10
2022-12-23T20:00:19.414Z,10.07
2022-12-23T20:02:46.785Z,10.08
2022-12-23T20:05:14.166Z,10.08
2022-12-23T20:07:41.248Z,10.09
2022-12-23T20:10:08.964Z,10.11
2022-12-23T20:12:35.918Z,10.12
2022-12-23T20:15:03.107Z,10.05
2022-12-23T20:17:30.125Z,10.06
2022-12-23T20:19:57.393Z,10.02
2022-12-23T20:22:24.360Z,10.01
2022-12-23T20:24:51.261Z,10.03
2022-12-23T20:27:22.670Z,10.03
2022-12-23T20:29:53.129Z,10.04
2022-12-23T20:32:20.039Z,10.06
2022-12-23T20:34:49.024Z,10.07
2022-12-23T20:37:16.270Z,10.09
2022-12-23T20:39:43.267Z,10.08
2022-12-23T20:42:10.358Z,10.09
2022-12-23T20:44:38.100Z,10.10
2022-12-23T20:47:06.334Z,10.11
2022-12-23T20:49:33.891Z,10.12
2022-12-23T20:52:01.464Z,10.12
2022-12-23T20:54:33.077Z,10.12
2022-12-23T20:57:04.045Z,10.13
2022-12-23T20:59:31.365Z,10.13
2022-12-23T21:01:59.326Z,10.14
2022-12-23T21:04:26.721Z,10.14
2022-12-23T21:06:54.666Z,10.12
2022-12-23T21:09:21.847Z,10.12
2022-12-23T21:11:49.909Z,10.14
2022-12-23T21:14:17.233Z,10.14
2022-12-23T21:16:44.487Z,10.15
2022-12-23T21:19:24.292Z,10.15
2022-12-23T21:21:52.557Z,10.14
2022-12-23T21:24:21.217Z,10.15
2022-12-23T21:26:56.560Z,10.16
2022-12-23T21:29:24.607Z,10.15
2022-12-23T21:31:51.679Z,10.14
2022-12-23T21:34:18.742Z,10.13
2022-12-23T21:36:45.757Z,10.12
2022-12-23T21:39:18.331Z,10.11
2022-12-23T21:41:46.028Z,10.10
2022-12-23T21:44:16.445Z,10.09
2022-12-23T21:46:43.627Z,10.10
2022-12-23T21:49:11.464Z,10.11
2022-12-23T21:51:41.321Z,10.12
2022-12-23T21:54:10.929Z,10.10
2022-12-23T21:56:39.268Z,10.07
2022-12-23T21:59:14.138Z,10.09
2022-12-23T22:01:42.742Z,10.06
2022-12-23T22:04:10.012Z,10.06
2022-12-23T22:06:41.401Z,10.04
2022-12-23T22:09:10.002Z,10.03
2022-12-23T22:11:38.374Z,10.03
2022-12-23T22:14:08.652Z,10.05
2022-12-23T22:16:36.374Z,10.07
2022-12-23T22:19:06.354Z,10.07
2022-12-23T22:21:36.400Z,10.09
2022-12-23T22:24:03.690Z,10.07
2022-12-23T22:26:33.023Z,10.07
2022-12-23T22:29:03.301Z,10.09
2022-12-23T22:31:43.598Z,10.09
2022-12-23T22:34:21.305Z,10.07
2022-12-23T22:36:49.582Z,10.09
2022-12-23T22:39:21.472Z,10.09
2022-12-23T22:41:53.151Z,10.09
2022-12-23T22:44:20.967Z,10.10
2022-12-23T22:46:48.390Z,10.09
2022-12-23T22:49:16.459Z,10.08
2022-12-23T22:51:44.001Z,10.06
2022-12-23T22:54:11.251Z,10.05
2022-12-23T22:56:38.242Z,10.04
2022-12-23T22:59:05.644Z,10.03
2022-12-23T23:01:35.988Z,10.03
2022-12-23T23:04:05.062Z,10.04
2022-12-23T23:06:37.636Z,10.07
2022-12-23T23:09:12.896Z,10.08
2022-12-23T23:11:40.928Z,10.07
2022-12-23T23:14:07.931Z,10.09
2022-12-23T23:16:34.970Z,10.09
2022-12-23T23:19:02.339Z,10.11
2022-12-23T23:21:29.580Z,10.11
2022-12-23T23:23:56.534Z,10.10
2022-12-23T23:26:27.225Z,10.11
2022-12-23T23:28:55.609Z,10.11
2022-12-23T23:34:11.758Z,10.09
2022-12-23T23:36:38.959Z,10.07
2022-12-23T23:39:06.049Z,10.06
2022-12-23T23:41:41.143Z,10.00
2022-12-23T23:44:08.581Z,10.02
2022-12-23T23:46:35.918Z,10.02
2022-12-23T23:49:03.414Z,10.03
2022-12-23T23:51:30.596Z,10.01
2022-12-23T23:53:57.667Z,10.00
2022-12-23T23:56:26.244Z,10.00
2022-12-23T23:58:55.202Z,10.00
